Time;durP1;ratioP1;P1;durP2;ratioP2;P2;SDS_P1;SDS_P2;PMS_P1;PMS_P2;Temp;Humidity;BMP_temperature;BMP_pressure;BME280_temperature;BME280_humidity;BME280_pressure;Samples;Min_cycle;Max_cycle;Signal;HPM_P1;HPM_P2
2021/09/18 00:01:34;;;;;;;;;;;;;;;11.22;82.61;101149.05;1960441;73;20110;-69
2021/09/18 00:04:04;;;;;;;;;;;;;;;11.17;82.47;101150.04;1960459;73;20103;-70
2021/09/18 00:06:31;;;;;;;;;;;;;;;11.12;82.35;101157.27;1960475;73;20110;-70
2021/09/18 00:08:59;;;;;;;;;;;;;;;11.04;82.09;101156.66;1960369;73;20110;-69
2021/09/18 00:11:27;;;;;;;;;;;;;;;10.99;81.96;101151.99;1960591;73;20137;-69
2021/09/18 00:13:55;;;;;;;;;;;;;;;10.96;81.83;101155.61;1960434;73;20106;-69
2021/09/18 00:16:24;;;;;;;;;;;;;;;10.93;81.65;101156.17;1960664;73;20117;-69
2021/09/18 00:18:52;;;;;;;;;;;;;;;10.91;81.50;101158.00;1960499;73;20110;-69
2021/09/18 00:21:20;;;;;;;;;;;;;;;10.88;81.38;101155.02;1960432;73;20113;-69
2021/09/18 00:23:47;;;;;;;;;;;;;;;10.85;81.37;101152.95;1960470;73;20180;-69
2021/09/18 00:26:16;;;;;;;;;;;;;;;10.84;81.54;101145.94;1960468;73;20152;-69
2021/09/18 00:28:43;;;;;;;;;;;;;;;10.85;81.65;101142.41;1960464;73;20110;-68
2021/09/18 00:31:11;;;;;;;;;;;;;;;10.85;82.08;101143.73;1960479;73;20141;-68
2021/09/18 00:33:39;;;;;;;;;;;;;;;10.85;83.22;101148.99;1960640;73;20110;-68
2021/09/18 00:36:07;;;;;;;;;;;;;;;10.84;83.54;101151.20;1960370;73;20189;-69
2021/09/18 00:38:35;;;;;;;;;;;;;;;10.82;83.90;101153.42;1960510;73;20192;-68
2021/09/18 00:41:04;;;;;;;;;;;;;;;10.82;83.90;101156.06;1960430;73;20137;-68
2021/09/18 00:43:32;;;;;;;;;;;;;;;10.81;83.78;101154.35;1960458;73;20117;-68
2021/09/18 00:46:00;;;;;;;;;;;;;;;10.78;83.53;101151.81;1960557;73;20136;-68
2021/09/18 00:48:28;;;;;;;;;;;;;;;10.75;83.76;101147.10;1964306;72;20117;-68
2021/09/18 00:50:56;;;;;;;;;;;;;;;10.71;84.00;101157.34;1966477;73;20113;-68
2021/09/18 00:53:24;;;;;;;;;;;;;;;10.66;83.63;101150.92;1966439;73;20196;-67
2021/09/18 00:55:52;;;;;;;;;;;;;;;10.65;83.66;101157.09;1966438;73;20106;-68
2021/09/18 00:58:20;;;;;;;;;;;;;;;10.62;83.64;101157.17;1966486;73;20109;-67
2021/09/18 01:00:48;;;;;;;;;;;;;;;10.60;83.60;101151.98;1966461;73;20094;-68
2021/09/18 01:03:16;;;;;;;;;;;;;;;10.59;83.75;101146.77;1966403;73;20118;-68
2021/09/18 01:05:44;;;;;;;;;;;;;;;10.58;84.12;101143.71;1966502;73;20097;-68
2021/09/18 01:08:12;;;;;;;;;;;;;;;10.57;84.60;101147.27;1966468;73;20109;-68
2021/09/18 01:10:40;;;;;;;;;;;;;;;10.57;84.39;101144.64;1966445;73;20102;-68
2021/09/18 01:13:11;;;;;;;;;;;;;;;10.55;84.24;101149.06;1966430;73;20114;-68
2021/09/18 01:15:39;;;;;;;;;;;;;;;10.54;84.26;101140.78;1966320;73;20148;-68
2021/09/18 01:18:08;;;;;;;;;;;;;;;10.53;84.38;101137.72;1966427;73;20114;-68
2021/09/18 01:20:37;;;;;;;;;;;;;;;10.53;84.25;101142.99;1966404;73;20372;-69
2021/09/18 01:23:06;;;;;;;;;;;;;;;10.55;84.25;101135.90;1966416;73;20165;-68
2021/09/18 01:25:35;;;;;;;;;;;;;;;10.56;84.22;101135.00;1966548;73;20126;-68
2021/09/18 01:28:04;;;;;;;;;;;;;;;10.56;83.80;101128.42;1966312;73;20379;-67
2021/09/18 01:30:33;;;;;;;;;;;;;;;10.52;83.41;101123.70;1966373;73;20136;-67
2021/09/18 01:33:01;;;;;;;;;;;;;;;10.50;83.23;101122.05;1966506;73;20140;-70
2021/09/18 01:35:31;;;;;;;;;;;;;;;10.48;83.44;101122.55;1966386;73;20101;-70
2021/09/18 01:37:59;;;;;;;;;;;;;;;10.48;83.33;101118.61;1966379;73;20384;-69
2021/09/18 01:40:28;;;;;;;;;;;;;;;10.47;83.22;101117.72;1966402;73;20109;-72
2021/09/18 01:42:57;;;;;;;;;;;;;;;10.47;83.50;101120.82;1966431;73;20372;-69
2021/09/18 01:45:26;;;;;;;;;;;;;;;10.46;83.65;101123.92;1966386;73;20176;-70
2021/09/18 01:47:56;;;;;;;;;;;;;;;10.45;84.05;101122.18;1966305;72;20118;-70
2021/09/18 01:50:28;;;;;;;;;;;;;;;10.45;84.01;101117.38;1966040;72;20117;-71
2021/09/18 01:52:58;;;;;;;;;;;;;;;10.42;83.96;101117.89;1966372;73;20114;-67
2021/09/18 01:55:26;;;;;;;;;;;;;;;10.41;84.35;101118.78;1966313;73;20161;-67
2021/09/18 01:57:55;;;;;;;;;;;;;;;10.39;84.42;101117.98;1966392;73;20144;-69
2021/09/18 02:00:24;;;;;;;;;;;;;;;10.39;84.89;101115.34;1966412;73;20421;-70
2021/09/18 02:02:53;;;;;;;;;;;;;;;10.37;84.91;101111.05;1966453;73;20148;-70
2021/09/18 02:05:22;;;;;;;;;;;;;;;10.36;84.73;101111.95;1966419;73;20106;-70
2021/09/18 02:07:50;;;;;;;;;;;;;;;10.36;84.84;101112.80;1966331;73;20140;-70
2021/09/18 02:10:19;;;;;;;;;;;;;;;10.34;84.88;101107.19;1966457;73;20117;-70
2021/09/18 02:12:47;;;;;;;;;;;;;;;10.32;85.15;101107.70;1966419;73;20114;-70
2021/09/18 02:15:17;;;;;;;;;;;;;;;10.30;85.07;101112.98;1966527;73;20128;-69
2021/09/18 02:17:45;;;;;;;;;;;;;;;10.28;85.08;101116.11;1966402;73;20368;-69
2021/09/18 02:20:14;;;;;;;;;;;;;;;10.29;85.43;101113.91;1966533;73;20105;-69
2021/09/18 02:22:43;;;;;;;;;;;;;;;10.29;85.54;101115.65;1966543;73;20380;-68
2021/09/18 02:25:13;;;;;;;;;;;;;;;10.26;85.42;101119.25;1966379;73;20110;-68
2021/09/18 02:27:41;;;;;;;;;;;;;;;10.25;85.24;101114.88;1966403;73;20102;-68
2021/09/18 02:30:10;;;;;;;;;;;;;;;10.25;85.20;101116.20;1966433;73;20144;-68
2021/09/18 02:32:38;;;;;;;;;;;;;;;10.24;85.24;101115.81;1966405;73;20434;-69
2021/09/18 02:35:10;;;;;;;;;;;;;;;10.21;85.03;101110.63;1966341;73;20114;-69
2021/09/18 02:37:39;;;;;;;;;;;;;;;10.19;85.15;101118.58;1966387;73;20114;-68
2021/09/18 02:40:08;;;;;;;;;;;;;;;10.16;85.14;101109.91;1966388;73;20105;-68
2021/09/18 02:42:37;;;;;;;;;;;;;;;10.13;85.60;101107.40;1966444;73;20161;-68
2021/09/18 02:45:07;;;;;;;;;;;;;;;10.12;85.74;101103.03;1966435;73;20106;-68
2021/09/18 02:47:35;;;;;;;;;;;;;;;10.10;85.67;101107.02;1966351;73;20482;-67
2021/09/18 02:50:03;;;;;;;;;;;;;;;10.10;85.66;101107.02;1966303;72;20114;-70
2021/09/18 02:52:31;;;;;;;;;;;;;;;10.11;85.67;101115.80;1966402;73;20114;-69
2021/09/18 02:55:00;;;;;;;;;;;;;;;10.08;85.79;101111.94;1966649;73;20113;-71
2021/09/18 02:57:28;;;;;;;;;;;;;;;10.07;85.83;101114.14;1966372;73;20152;-71
2021/09/18 02:59:56;;;;;;;;;;;;;;;10.05;85.90;101116.39;1966340;73;20157;-72
2021/09/18 03:02:24;;;;;;;;;;;;;;;10.05;85.74;101115.08;1966417;73;20109;-70
2021/09/18 03:04:52;;;;;;;;;;;;;;;10.04;85.55;101117.28;1966363;73;20102;-72
2021/09/18 03:07:19;;;;;;;;;;;;;;;10.04;85.53;101122.55;1966388;73;20144;-70
2021/09/18 03:09:47;;;;;;;;;;;;;;;10.04;85.90;101121.69;1966384;73;20098;-70
2021/09/18 03:12:15;;;;;;;;;;;;;;;10.06;86.06;101130.39;1966413;73;20144;-70
2021/09/18 03:14:43;;;;;;;;;;;;;;;10.05;86.05;101124.28;1966311;73;20928;-71
2021/09/18 03:17:11;;;;;;;;;;;;;;;10.09;85.99;101137.32;1966321;73;20113;-69
2021/09/18 03:19:38;;;;;;;;;;;;;;;10.09;86.17;101140.84;1966390;73;20098;-70
2021/09/18 03:22:06;;;;;;;;;;;;;;;10.09;86.21;101143.47;1966325;73;20183;-70
2021/09/18 03:24:34;;;;;;;;;;;;;;;10.12;86.04;101147.77;1966332;73;20130;-70
2021/09/18 03:27:02;;;;;;;;;;;;;;;10.14;85.93;101151.20;1966254;73;20144;-72
2021/09/18 03:29:29;;;;;;;;;;;;;;;10.14;85.55;101157.78;1966333;73;20746;-71
2021/09/18 03:32:00;;;;;;;;;;;;;;;10.18;85.37;101160.72;1966330;73;20117;-71
2021/09/18 03:34:28;;;;;;;;;;;;;;;10.23;85.47;101159.67;1966343;73;20125;-69
2021/09/18 03:36:56;;;;;;;;;;;;;;;10.29;85.32;101153.39;1966358;73;20173;-67
2021/09/18 03:39:24;;;;;;;;;;;;;;;10.37;85.09;101156.66;1966419;73;20133;-67
2021/09/18 03:41:52;;;;;;;;;;;;;;;10.55;84.82;101149.95;1966460;73;20192;-67
2021/09/18 03:44:20;;;;;;;;;;;;;;;10.75;84.49;101140.08;1966573;73;20098;-68
2021/09/18 03:46:50;;;;;;;;;;;;;;;10.89;84.14;101144.02;1966464;73;20139;-68
2021/09/18 03:49:17;;;;;;;;;;;;;;;11.10;83.86;101147.67;1966393;72;20101;-67
2021/09/18 03:51:45;;;;;;;;;;;;;;;11.26;83.40;101153.28;1966413;73;20110;-67
2021/09/18 03:54:12;;;;;;;;;;;;;;;11.38;83.11;101151.55;1966371;73;20148;-71
2021/09/18 03:56:40;;;;;;;;;;;;;;;11.51;83.01;101150.17;1966436;73;20133;-71
2021/09/18 03:59:08;;;;;;;;;;;;;;;11.65;82.76;101156.72;1966474;73;20114;-69
2021/09/18 04:01:36;;;;;;;;;;;;;;;11.78;82.43;101159.30;1966530;73;20138;-70
2021/09/18 04:04:04;;;;;;;;;;;;;;;11.87;82.23;101153.67;1966647;73;20114;-70
2021/09/18 04:06:32;;;;;;;;;;;;;;;11.96;82.15;101157.31;1966489;73;20140;-69
2021/09/18 04:08:59;;;;;;;;;;;;;;;12.12;81.98;101154.10;1966295;73;20179;-69
2021/09/18 04:11:27;;;;;;;;;;;;;;;12.23;81.20;101149.27;1966467;73;20114;-67
2021/09/18 04:13:55;;;;;;;;;;;;;;;12.40;80.49;101153.86;1966444;73;20114;-67
2021/09/18 04:16:23;;;;;;;;;;;;;;;12.65;79.90;101145.81;1966464;73;20113;-66
2021/09/18 04:18:51;;;;;;;;;;;;;;;12.96;79.50;101151.12;1966469;73;20133;-68
2021/09/18 04:21:19;;;;;;;;;;;;;;;13.25;79.51;101149.88;1966369;73;20110;-68
2021/09/18 04:23:47;;;;;;;;;;;;;;;13.55;78.51;101152.58;1966576;73;20098;-68
2021/09/18 04:26:15;;;;;;;;;;;;;;;13.88;78.35;101152.83;1966492;73;20144;-68
2021/09/18 04:28:44;;;;;;;;;;;;;;;14.22;77.85;101156.09;1966461;73;20140;-70
2021/09/18 04:31:11;;;;;;;;;;;;;;;14.58;77.55;101156.58;1966510;73;20110;-68
2021/09/18 04:33:39;;;;;;;;;;;;;;;14.94;77.23;101154.38;1966460;73;20094;-70
2021/09/18 04:36:07;;;;;;;;;;;;;;;15.26;77.30;101157.16;1966411;73;20102;-66
2021/09/18 04:38:35;;;;;;;;;;;;;;;15.44;77.07;101156.67;1966503;73;20110;-68
2021/09/18 04:41:03;;;;;;;;;;;;;;;15.65;76.89;101158.64;1966390;72;20114;-68
2021/09/18 04:43:31;;;;;;;;;;;;;;;15.97;76.21;101155.61;1966440;73;20139;-68
2021/09/18 04:45:58;;;;;;;;;;;;;;;16.37;76.28;101153.36;1966424;73;20144;-68
2021/09/18 04:48:26;;;;;;;;;;;;;;;16.66;74.68;101153.98;1966366;73;20097;-67
2021/09/18 04:50:54;;;;;;;;;;;;;;;16.97;74.37;101144.61;1966276;72;20398;-67
2021/09/18 04:53:22;;;;;;;;;;;;;;;17.25;73.89;101150.94;1966119;72;20116;-67
2021/09/18 04:55:50;;;;;;;;;;;;;;;17.51;72.47;101140.50;1966089;73;20119;-67
2021/09/18 04:58:17;;;;;;;;;;;;;;;17.89;72.56;101138.14;1966147;73;20111;-66
2021/09/18 05:00:45;;;;;;;;;;;;;;;18.16;71.74;101150.63;1966082;72;20146;-68
2021/09/18 05:03:13;;;;;;;;;;;;;;;18.49;71.05;101146.73;1966063;73;20174;-68
2021/09/18 05:05:41;;;;;;;;;;;;;;;18.93;71.18;101147.42;1966139;73;20109;-68
2021/09/18 05:08:09;;;;;;;;;;;;;;;19.37;71.36;101143.52;1966123;72;20119;-68
2021/09/18 05:10:36;;;;;;;;;;;;;;;19.58;70.38;101139.32;1966101;73;20111;-68
2021/09/18 05:13:04;;;;;;;;;;;;;;;19.81;68.80;101138.22;1966166;73;20115;-68
2021/09/18 05:15:32;;;;;;;;;;;;;;;20.05;68.37;101133.77;1966010;72;20146;-69
2021/09/18 05:18:00;;;;;;;;;;;;;;;20.48;68.11;101132.91;1966069;72;20104;-68
2021/09/18 05:20:28;;;;;;;;;;;;;;;20.72;68.23;101131.58;1966077;72;20143;-68
2021/09/18 05:22:56;;;;;;;;;;;;;;;20.76;67.97;101136.56;1966142;73;20138;-68
2021/09/18 05:25:23;;;;;;;;;;;;;;;20.82;68.16;101132.11;1966112;72;20116;-68
2021/09/18 05:27:51;;;;;;;;;;;;;;;21.00;67.00;101126.30;1966088;73;20150;-68
2021/09/18 05:30:19;;;;;;;;;;;;;;;21.44;67.60;101121.14;1965984;73;20233;-67
2021/09/18 05:32:47;;;;;;;;;;;;;;;21.93;67.18;101133.31;1966087;72;20181;-67
2021/09/18 05:35:15;;;;;;;;;;;;;;;22.33;67.07;101120.20;1966137;73;20100;-66
2021/09/18 05:37:43;;;;;;;;;;;;;;;22.43;66.15;101116.29;1966034;73;20386;-67
2021/09/18 05:40:11;;;;;;;;;;;;;;;22.56;65.58;101122.83;1966093;73;20146;-66
2021/09/18 05:42:39;;;;;;;;;;;;;;;22.57;65.17;101121.83;1966005;73;20120;-67
2021/09/18 05:45:08;;;;;;;;;;;;;;;22.71;65.48;101124.20;1966160;73;20170;-67
2021/09/18 05:47:36;;;;;;;;;;;;;;;23.06;63.52;101119.05;1966022;73;20112;-68
2021/09/18 05:50:04;;;;;;;;;;;;;;;23.48;64.64;101116.30;1966102;73;20115;-67
2021/09/18 05:52:38;;;;;;;;;;;;;;;24.00;64.34;101110.00;1895580;71;20124;-68
2021/09/18 05:55:06;;;;;;;;;;;;;;;24.56;62.56;101111.20;1933767;74;20118;-68
2021/09/18 05:57:34;;;;;;;;;;;;;;;24.99;62.64;101109.39;1949487;74;20143;-68
2021/09/18 06:00:02;;;;;;;;;;;;;;;25.50;62.14;101111.31;1949500;74;20142;-68
2021/09/18 06:02:31;;;;;;;;;;;;;;;25.86;61.19;101111.44;1949456;74;20112;-67
2021/09/18 06:04:58;;;;;;;;;;;;;;;26.18;59.32;101115.52;1949444;74;20142;-68
2021/09/18 06:07:32;;;;;;;;;;;;;;;26.63;56.32;101113.77;1949459;74;20116;-68
2021/09/18 06:10:04;;;;;;;;;;;;;;;26.84;58.43;101109.39;1949363;74;20109;-68
2021/09/18 06:12:32;;;;;;;;;;;;;;;27.04;58.78;101111.37;1949426;74;20120;-68
2021/09/18 06:15:00;;;;;;;;;;;;;;;26.97;57.54;101116.58;1949490;74;20112;-69
2021/09/18 06:17:28;;;;;;;;;;;;;;;26.83;58.21;101119.33;1949485;74;20120;-68
2021/09/18 06:19:56;;;;;;;;;;;;;;;26.66;58.06;101120.22;1949494;74;20108;-68
2021/09/18 06:22:23;;;;;;;;;;;;;;;26.28;57.99;101121.70;1949421;74;20147;-68
2021/09/18 06:24:51;;;;;;;;;;;;;;;25.67;55.21;101115.56;1949468;74;20113;-69
2021/09/18 06:27:19;;;;;;;;;;;;;;;25.30;54.44;101107.83;1949499;74;20108;-67
2021/09/18 06:29:47;;;;;;;;;;;;;;;25.21;55.22;101110.91;1949486;74;20159;-67
2021/09/18 06:32:20;;;;;;;;;;;;;;;25.53;54.31;101104.79;1949483;74;20139;-67
2021/09/18 06:34:45;;;;;;;;;;;;;;;25.97;54.37;101100.97;1948264;74;20116;-67
2021/09/18 06:37:13;;;;;;;;;;;;;;;26.36;53.42;101110.14;1949457;74;20149;-68
2021/09/18 06:39:41;;;;;;;;;;;;;;;26.54;51.36;101106.92;1949544;74;20363;-66
2021/09/18 06:42:09;;;;;;;;;;;;;;;26.55;49.97;101105.91;1949386;74;20456;-67
2021/09/18 06:44:38;;;;;;;;;;;;;;;26.62;50.28;101109.39;1949500;74;20421;-66
2021/09/18 06:47:05;;;;;;;;;;;;;;;27.00;49.41;101105.94;1949452;74;20112;-67
2021/09/18 06:49:34;;;;;;;;;;;;;;;27.45;49.57;101094.09;1949449;74;20113;-67
2021/09/18 06:52:02;;;;;;;;;;;;;;;28.06;49.26;101097.53;1959320;73;20112;-67
2021/09/18 06:54:31;;;;;;;;;;;;;;;28.46;47.50;101093.20;1970093;73;20107;-66
2021/09/18 06:56:59;;;;;;;;;;;;;;;28.62;45.88;101086.95;1969508;73;20163;-66
2021/09/18 06:59:26;;;;;;;;;;;;;;;28.66;47.17;101092.36;1970054;73;20139;-66
2021/09/18 07:01:54;;;;;;;;;;;;;;;28.58;44.91;101086.95;1969947;73;20397;-66
2021/09/18 07:04:22;;;;;;;;;;;;;;;28.41;45.28;101081.50;1970104;73;20112;-66
2021/09/18 07:06:50;;;;;;;;;;;;;;;28.38;44.75;101081.83;1970052;73;20103;-66
2021/09/18 07:09:26;;;;;;;;;;;;;;;28.39;44.25;101074.06;1970083;73;20167;-66
2021/09/18 07:11:54;;;;;;;;;;;;;;;28.56;41.50;101080.35;1970164;73;20408;-66
2021/09/18 07:14:22;;;;;;;;;;;;;;;28.45;42.05;101078.79;1970078;73;20111;-67
2021/09/18 07:16:49;;;;;;;;;;;;;;;28.39;42.78;101074.06;1970252;73;20095;-67
2021/09/18 07:19:17;;;;;;;;;;;;;;;28.71;43.31;101074.25;1970241;73;20202;-66
2021/09/18 07:21:45;;;;;;;;;;;;;;;29.07;41.16;101074.70;1970267;73;20425;-67
2021/09/18 07:24:13;;;;;;;;;;;;;;;29.40;41.31;101075.48;1970161;73;20404;-66
2021/09/18 07:26:40;;;;;;;;;;;;;;;29.70;39.97;101078.91;1970136;73;20115;-66
2021/09/18 07:29:08;;;;;;;;;;;;;;;29.98;40.67;101066.55;1970096;73;20178;-67
2021/09/18 07:31:37;;;;;;;;;;;;;;;30.45;40.52;101074.73;1970346;73;20115;-65
2021/09/18 07:34:06;;;;;;;;;;;;;;;30.39;39.86;101072.23;1969665;73;20115;-66
2021/09/18 07:36:34;;;;;;;;;;;;;;;29.66;39.92;101067.57;1969648;73;20374;-66
2021/09/18 07:39:02;;;;;;;;;;;;;;;29.27;40.24;101067.03;1970155;73;20100;-66
2021/09/18 07:41:30;;;;;;;;;;;;;;;29.15;40.10;101061.15;1970011;73;20141;-67
2021/09/18 07:44:00;;;;;;;;;;;;;;;29.22;39.58;101059.95;1970190;73;20115;-67
2021/09/18 07:46:28;;;;;;;;;;;;;;;29.17;39.64;101055.55;1969981;73;20112;-66
2021/09/18 07:48:57;;;;;;;;;;;;;;;29.18;39.29;101051.32;1969542;73;20115;-66
2021/09/18 07:51:27;;;;;;;;;;;;;;;29.26;38.70;101048.56;1970134;73;20117;-66
2021/09/18 07:53:56;;;;;;;;;;;;;;;28.77;39.24;101055.94;1970104;73;20111;-66
2021/09/18 07:56:24;;;;;;;;;;;;;;;28.04;40.80;101055.75;1970135;73;20142;-66
2021/09/18 07:58:54;;;;;;;;;;;;;;;27.52;41.64;101047.81;1970116;73;20103;-65
2021/09/18 08:01:27;;;;;;;;;;;;;;;27.07;42.12;101047.55;1970122;73;20439;-66
2021/09/18 08:03:58;;;;;;;;;;;;;;;26.74;42.92;101048.69;1970144;73;20112;-66
2021/09/18 08:06:23;;;;;;;;;;;;;;;26.49;43.67;101048.48;1969604;73;20445;-69
2021/09/18 08:08:51;;;;;;;;;;;;;;;26.42;44.13;101047.41;1970119;73;20155;-66
2021/09/18 08:11:20;;;;;;;;;;;;;;;26.14;44.59;101048.86;1970128;73;20108;-66
2021/09/18 08:13:48;;;;;;;;;;;;;;;25.98;45.00;101047.34;1970135;73;20147;-66
2021/09/18 08:16:16;;;;;;;;;;;;;;;26.00;45.27;101046.69;1970128;73;20116;-66
2021/09/18 08:18:45;;;;;;;;;;;;;;;26.17;45.25;101044.98;1970181;73;20146;-66
2021/09/18 08:21:13;;;;;;;;;;;;;;;26.77;44.80;101045.17;1970026;73;20117;-66
2021/09/18 08:23:41;;;;;;;;;;;;;;;27.72;44.09;101045.17;1970121;73;20112;-66
2021/09/18 08:26:10;;;;;;;;;;;;;;;27.85;44.36;101037.06;1970131;73;20120;-66
2021/09/18 08:28:39;;;;;;;;;;;;;;;27.88;44.43;101028.11;1970156;73;20159;-66
2021/09/18 08:31:08;;;;;;;;;;;;;;;29.00;43.55;101024.91;1970124;73;20194;-66
2021/09/18 08:33:36;;;;;;;;;;;;;;;30.05;41.90;101029.20;1970048;73;20151;-66
2021/09/18 08:36:04;;;;;;;;;;;;;;;30.59;40.91;101030.45;1970151;73;20103;-66
2021/09/18 08:38:32;;;;;;;;;;;;;;;30.47;37.21;101030.56;1970143;73;20116;-66
2021/09/18 08:41:07;;;;;;;;;;;;;;;29.79;38.64;101025.80;1970174;73;20108;-66
2021/09/18 08:43:29;;;;;;;;;;;;;;;29.51;38.84;101026.78;1965362;73;20385;-67
2021/09/18 08:46:00;;;;;;;;;;;;;;;29.55;38.76;101023.20;1970120;73;20111;-67
2021/09/18 08:48:28;;;;;;;;;;;;;;;29.78;37.93;101015.11;1970113;73;20135;-67
2021/09/18 08:50:56;;;;;;;;;;;;;;;29.74;37.76;101016.50;1970089;73;20141;-67
2021/09/18 08:53:23;;;;;;;;;;;;;;;29.89;38.33;101022.84;1959127;73;20113;-67
2021/09/18 08:55:53;;;;;;;;;;;;;;;29.94;37.46;101027.22;1949470;74;20109;-67
2021/09/18 08:58:21;;;;;;;;;;;;;;;29.37;38.20;101016.67;1949482;74;20434;-67
2021/09/18 09:00:50;;;;;;;;;;;;;;;28.44;39.51;101009.89;1949453;74;20117;-67
2021/09/18 09:03:25;;;;;;;;;;;;;;;27.57;40.76;101017.04;1949559;74;20428;-67
2021/09/18 09:05:55;;;;;;;;;;;;;;;26.94;42.15;101011.00;1949522;74;20108;-67
2021/09/18 09:08:22;;;;;;;;;;;;;;;26.55;43.14;101016.80;1948852;74;20143;-67
2021/09/18 09:10:50;;;;;;;;;;;;;;;26.32;43.61;101020.99;1949475;74;20143;-68
2021/09/18 09:13:19;;;;;;;;;;;;;;;26.09;44.08;101016.08;1949431;74;20421;-67
2021/09/18 09:15:50;;;;;;;;;;;;;;;26.22;44.29;101015.69;1949590;74;20144;-67
2021/09/18 09:18:22;;;;;;;;;;;;;;;26.96;43.53;101013.06;1949467;74;20221;-68
2021/09/18 09:20:51;;;;;;;;;;;;;;;28.10;42.13;101015.81;1949516;74;20382;-68
2021/09/18 09:23:20;;;;;;;;;;;;;;;29.18;40.54;101016.07;1949525;74;20109;-68
2021/09/18 09:25:54;;;;;;;;;;;;;;;29.51;39.84;101015.06;1949394;74;20175;-68
2021/09/18 09:28:22;;;;;;;;;;;;;;;29.15;39.88;101017.77;1948649;74;20151;-68
2021/09/18 09:30:50;;;;;;;;;;;;;;;28.79;40.54;101007.84;1944083;74;20144;-68
2021/09/18 09:33:18;;;;;;;;;;;;;;;28.13;41.25;100998.90;1949509;74;20198;-68
2021/09/18 09:35:46;;;;;;;;;;;;;;;27.44;42.11;101013.95;1949409;74;20378;-67
2021/09/18 09:38:14;;;;;;;;;;;;;;;27.23;42.59;101009.80;1949406;74;20398;-67
2021/09/18 09:40:44;;;;;;;;;;;;;;;26.91;43.15;101011.34;1949552;74;20142;-67
2021/09/18 09:43:13;;;;;;;;;;;;;;;26.88;43.46;101010.80;1949523;74;20112;-67
2021/09/18 09:45:40;;;;;;;;;;;;;;;27.49;43.00;101009.75;1949486;74;20116;-68
2021/09/18 09:48:10;;;;;;;;;;;;;;;27.71;42.66;100996.13;1949538;74;20143;-68
2021/09/18 09:50:39;;;;;;;;;;;;;;;27.84;42.60;101002.91;1949441;74;20147;-67
2021/09/18 09:53:07;;;;;;;;;;;;;;;28.01;42.27;101003.81;1952831;73;20385;-67
2021/09/18 09:55:36;;;;;;;;;;;;;;;27.86;42.52;101009.84;1970085;73;20156;-67
2021/09/18 09:58:06;;;;;;;;;;;;;;;27.81;42.03;101020.83;1970139;73;20100;-67
2021/09/18 10:00:40;;;;;;;;;;;;;;;27.52;42.42;101004.55;1969621;73;20120;-68
2021/09/18 10:03:07;;;;;;;;;;;;;;;27.23;42.81;101014.37;1970105;73;20096;-67
2021/09/18 10:05:36;;;;;;;;;;;;;;;27.13;43.16;101000.95;1970081;73;20155;-66
2021/09/18 10:08:07;;;;;;;;;;;;;;;27.27;43.16;101017.95;1970127;73;20115;-66
2021/09/18 10:10:35;;;;;;;;;;;;;;;27.68;42.72;101015.89;1970149;73;20146;-66
2021/09/18 10:13:03;;;;;;;;;;;;;;;27.64;42.83;101012.66;1970119;73;20389;-66
2021/09/18 10:15:31;;;;;;;;;;;;;;;27.28;43.31;101012.03;1970130;73;20374;-66
2021/09/18 10:18:00;;;;;;;;;;;;;;;27.03;43.92;101000.25;1969978;73;20142;-66
2021/09/18 10:25:47;;;;;;;;;;;;;;;26.76;44.92;101000.75;1969595;73;20137;-67
2021/09/18 10:28:19;;;;;;;;;;;;;;;26.94;44.75;100993.43;1969214;73;20142;-68
2021/09/18 10:30:54;;;;;;;;;;;;;;;27.30;44.02;100991.11;1970103;73;20116;-67
2021/09/18 10:33:33;;;;;;;;;;;;;;;27.13;44.15;101003.17;1970116;73;20116;-67
2021/09/18 10:36:11;;;;;;;;;;;;;;;27.02;44.56;100995.36;1970043;73;20119;-66
2021/09/18 10:38:43;;;;;;;;;;;;;;;27.01;44.86;100995.52;1969954;73;20111;-67
2021/09/18 10:41:12;;;;;;;;;;;;;;;26.88;44.48;100997.30;1969461;73;20378;-67
2021/09/18 10:43:41;;;;;;;;;;;;;;;27.15;44.37;101003.86;1970124;73;20142;-67
2021/09/18 10:46:11;;;;;;;;;;;;;;;27.44;43.57;100997.73;1967693;73;20147;-67
2021/09/18 10:48:53;;;;;;;;;;;;;;;27.02;43.75;101002.11;1970198;73;20432;-66
2021/09/18 10:51:35;;;;;;;;;;;;;;;26.73;44.29;100999.75;1968500;73;20103;-69
2021/09/18 10:54:10;;;;;;;;;;;;;;;26.23;45.08;101007.08;1970303;73;20376;-66
2021/09/18 10:56:58;;;;;;;;;;;;;;;25.93;46.32;100995.69;1955047;73;20116;-67
2021/09/18 10:59:42;;;;;;;;;;;;;;;25.99;46.30;100999.14;1969518;73;20397;-67
2021/09/18 11:02:20;;;;;;;;;;;;;;;26.34;45.97;100992.02;1970188;73;20108;-69
2021/09/18 11:04:48;;;;;;;;;;;;;;;26.45;45.41;100994.46;1966017;73;20112;-67
2021/09/18 11:07:39;;;;;;;;;;;;;;;26.33;45.71;100993.02;1970198;73;20104;-67
2021/09/18 11:10:03;;;;;;;;;;;;;;;26.48;45.53;100992.78;1968934;73;20112;-67
2021/09/18 11:12:31;;;;;;;;;;;;;;;26.56;45.44;100992.85;1970218;73;20100;-68
2021/09/18 11:15:02;;;;;;;;;;;;;;;26.75;45.54;100981.52;1970275;73;20190;-68
2021/09/18 11:17:31;;;;;;;;;;;;;;;26.53;45.74;100990.46;1970173;73;20120;-67
2021/09/18 11:20:00;;;;;;;;;;;;;;;26.37;45.99;100983.59;1970184;73;20185;-68
2021/09/18 11:22:29;;;;;;;;;;;;;;;26.30;46.04;100987.91;1967687;73;20116;-68
2021/09/18 11:24:58;;;;;;;;;;;;;;;26.16;46.36;100990.17;1968879;73;20159;-67
2021/09/18 11:27:35;;;;;;;;;;;;;;;25.99;46.47;100986.49;1965739;73;20398;-67
2021/09/18 11:30:03;;;;;;;;;;;;;;;25.75;46.18;100983.03;1970215;73;20139;-67
2021/09/18 11:32:32;;;;;;;;;;;;;;;25.64;46.88;100985.95;1970170;73;20412;-68
2021/09/18 11:35:01;;;;;;;;;;;;;;;25.65;47.39;100988.98;1970151;73;20115;-67
2021/09/18 11:37:31;;;;;;;;;;;;;;;25.74;47.50;100986.71;1970233;73;20163;-68
2021/09/18 11:40:00;;;;;;;;;;;;;;;25.94;47.07;100990.66;1970092;73;20262;-67
2021/09/18 11:42:29;;;;;;;;;;;;;;;25.99;47.07;100979.75;1970166;73;20115;-67
2021/09/18 11:45:05;;;;;;;;;;;;;;;26.07;46.93;100990.27;1970324;73;20378;-68
2021/09/18 11:47:34;;;;;;;;;;;;;;;25.79;46.76;100982.22;1970307;73;20143;-69
2021/09/18 11:50:03;;;;;;;;;;;;;;;25.53;47.41;100987.52;1970161;73;20116;-68
2021/09/18 11:52:35;;;;;;;;;;;;;;;25.38;47.72;100984.48;1967609;73;20103;-67
2021/09/18 11:55:03;;;;;;;;;;;;;;;25.16;48.21;100981.66;1970141;73;20115;-68
2021/09/18 11:57:31;;;;;;;;;;;;;;;24.95;49.01;100981.36;1960775;73;20113;-68
2021/09/18 12:00:00;;;;;;;;;;;;;;;24.91;48.94;100975.93;1944420;74;20315;-68
2021/09/18 12:02:31;;;;;;;;;;;;;;;24.88;49.43;100979.41;1941777;74;20415;-68
2021/09/18 12:04:59;;;;;;;;;;;;;;;24.87;49.50;100979.08;1944347;74;20195;-67
2021/09/18 12:07:27;;;;;;;;;;;;;;;24.76;49.45;100980.11;1944351;74;20110;-67
2021/09/18 12:09:55;;;;;;;;;;;;;;;24.62;49.33;100976.02;1944417;74;20149;-66
2021/09/18 12:12:26;;;;;;;;;;;;;;;24.52;49.66;100963.94;1944325;74;20384;-66
2021/09/18 12:14:55;;;;;;;;;;;;;;;24.50;49.47;100973.97;1944291;74;20109;-66
2021/09/18 12:17:23;;;;;;;;;;;;;;;24.56;49.41;100975.27;1944276;74;20102;-66
2021/09/18 12:19:51;;;;;;;;;;;;;;;24.57;49.35;100984.55;1944276;74;20115;-66
2021/09/18 12:22:19;;;;;;;;;;;;;;;24.45;49.14;100977.59;1944326;74;20144;-67
2021/09/18 12:24:48;;;;;;;;;;;;;;;24.28;49.81;100973.29;1944301;74;20109;-66
2021/09/18 12:27:23;;;;;;;;;;;;;;;24.28;50.03;100981.36;1944234;74;20117;-66
2021/09/18 12:29:58;;;;;;;;;;;;;;;24.25;50.38;100977.64;1944370;74;20101;-66
2021/09/18 12:32:28;;;;;;;;;;;;;;;24.10;50.48;100973.66;1944164;74;20144;-66
2021/09/18 12:34:57;;;;;;;;;;;;;;;24.04;51.14;100972.89;1944238;74;20133;-66
2021/09/18 12:37:29;;;;;;;;;;;;;;;23.98;51.01;100972.13;1944267;74;20121;-66
2021/09/18 12:39:58;;;;;;;;;;;;;;;23.97;51.41;100969.07;1954270;73;20120;-66
2021/09/18 12:42:26;;;;;;;;;;;;;;;23.97;51.88;100967.73;1953035;73;20116;-67
2021/09/18 12:44:54;;;;;;;;;;;;;;;24.01;51.67;100967.79;1954721;73;20195;-67
2021/09/18 12:47:24;;;;;;;;;;;;;;;23.99;51.51;100959.86;1954924;73;20104;-67
2021/09/18 12:49:52;;;;;;;;;;;;;;;23.94;51.38;100962.14;1954879;73;20362;-67